Webcam op het Zuiden Meer informatie Webcam op het Zuiden


Webcam op het Westen Meer informatie Webcam op het Westen


Onweer radar Meer informatie blitzortung!


Regen radar  rain snow radar


Lokaal brand risico:
CBI


Regionaal brand risico: Meer informatie


Lokaal brand risico:
Gebaseerd op actuele waarde
CBI


Bezoek ook deze websites:

Template documentation
and downloads

And another site



Het weer levert geen direct gevaar op.    Er zijn geen waarschuwingen afgegeven.

METAR rapporten vliegvelden

   
ETWM - Meppen, Germany
Afstand tot: O 29 km
Gewijzigd: 15-05-2021 16:20
  
  
   Wind: Zuiden 5.6 km/h
Wind: Zuiden 5.6 km/h
Temperatuur: 14°C
Dauwpunt: 9°C
Vochtigheid: 72%
Barometer: 1001 hPa
ETWM 151420Z AUTO 17003KT //// // ////// 14/09 Q1001 ///
EHGG - Groningen/Eelde, Netherlands
Afstand tot: NNW 47 km
Gewijzigd: 15-05-2021 16:25
Bewolking  
Bewolking  
   Wind: varieert 5.6 km/h
Wind: varieert 5.6 km/h
Temperatuur: 14°C
Dauwpunt: 8°C
Vochtigheid: 67%
Barometer: 1001 hPa
Bewolking: Bewolking
Zicht: meer dan 10 km
Bewolking: Gedeeltelijk bewolkt 3200 ft,
Grotendeels bewolkt 3900 ft,
Bewolking 4300 ft
EHGG 151425Z AUTO VRB03KT 9999 SCT032 BKN039 OVC043 14/08 Q1001 BECMG BKN018
EDDG - Muenster/Osnabru, Germany
Afstand tot: ZO 87 km
Gewijzigd: 15-05-2021 16:20
Light Showers, Regen, Licht bewolkt  
Light Showers, Regen, Licht bewolkt  
   Wind: Zuiden 11.1 km/h
Wind: Zuiden 11.1 km/h
Temperatuur: 13°C
Dauwpunt: 8°C
Vochtigheid: 72%
Barometer: 1002 hPa
Bewolking: Licht bewolkt
Zicht: meer dan 10 km
Bewolking: Licht bewolkt 2500 ft,
Licht bewolkt 3500 ft
EDDG 151420Z 19006KT 150V230 9999 -SHRA FEW025 FEW035CB 13/08 Q1002 RESHRA NOSIG
EHLW - Leeuwarden Rnlaf, Netherlands
Afstand tot: NW 93 km
Gewijzigd: 15-05-2021 16:46
Grotendeels bewolkt  
Grotendeels bewolkt  
   Wind: varieert 9.3 km/h
Wind: varieert 9.3 km/h
Temperatuur: 14°C
Dauwpunt: 8°C
Vochtigheid: 67%
Barometer: 1001 hPa
Bewolking: Grotendeels bewolkt
Zicht: meer dan 10 km
Bewolking: Gedeeltelijk bewolkt 2400 ft,
Gedeeltelijk bewolkt 3100 ft,
Grotendeels bewolkt 4400 ft
EHLW 151446Z AUTO VRB05KT 9999 SCT024 SCT031 BKN044 14/08 Q1001 WHT
ETNT - Wittmundhaven(Ga, Germany
Afstand tot: NNO 100 km
Gewijzigd: 15-05-2021 16:20
Light Showers, Regen, Grotendeels bewolkt  
Light Showers, Regen, Grotendeels bewolkt  
   Wind: ZZO 9.3 km/h
Wind: ZZO 9.3 km/h
Temperatuur: 12°C
Dauwpunt: 8°C
Vochtigheid: 77%
Barometer: 1002 hPa
Bewolking: Grotendeels bewolkt
Zicht: meer dan 10 km
Bewolking: Gedeeltelijk bewolkt 1800 ft,
Grotendeels bewolkt 5000 ft,
Grotendeels bewolkt 8000 ft
ETNT 151420Z 16005KT 9999 -SHRA SCT018CB BKN050 BKN080 12/08 Q1002 BLU
ETND - Diepholz (ger-Af, Germany
Afstand tot: O 104 km
Gewijzigd: 14-05-2021 11:20
Verouderd
Grotendeels bewolkt  
Grotendeels bewolkt  
   Wind: WNW 9.3 km/h
Wind: WNW 9.3 km/h
Temperatuur: 11°C
Dauwpunt: 6°C
Vochtigheid: 72%
Barometer: 1007 hPa
Bewolking: Grotendeels bewolkt
Zicht: meer dan 10 km
Bewolking: Gedeeltelijk bewolkt 1500 ft,
Gedeeltelijk bewolkt 6000 ft,
Grotendeels bewolkt 11000 ft
ETND 140920Z 30005KT 9999 SCT015 SCT060 BKN110 11/06 Q1007 BLU
ETNT - Wittmundhaven(Ga, Germany
Afstand tot: NNO 102 km
Gewijzigd: 15-05-2021 16:20
Light Showers, Regen, Grotendeels bewolkt  
Light Showers, Regen, Grotendeels bewolkt  
   Wind: ZZO 9.3 km/h
Wind: ZZO 9.3 km/h
Temperatuur: 12°C
Dauwpunt: 8°C
Vochtigheid: 77%
Barometer: 1002 hPa
Bewolking: Grotendeels bewolkt
Zicht: meer dan 10 km
Bewolking: Gedeeltelijk bewolkt 1800 ft,
Grotendeels bewolkt 5000 ft,
Grotendeels bewolkt 8000 ft
ETNT 151420Z 16005KT 9999 -SHRA SCT018CB BKN050 BKN080 12/08 Q1002 BLU
EHDL - Deelen Rnlafb, Netherlands
Afstand tot: ZW 103 km
Gewijzigd: 15-05-2021 16:25
Bewolking  
Bewolking  
   Wind: varieert 3.7 km/h
Wind: varieert 3.7 km/h
Temperatuur: 14°C
Dauwpunt: 8°C
Vochtigheid: 67%
Barometer: 1001 hPa
Bewolking: Bewolking
Zicht: meer dan 10 km
Bewolking: Licht bewolkt 2100 ft,
Gedeeltelijk bewolkt 4900 ft,
Bewolking 5400 ft
EHDL 151425Z AUTO VRB02KT 9999 FEW021CB SCT049 OVC054 14/08 Q1001 BLU
EHMA - Awg-1 Sea, Netherlands
Afstand tot: NW 105 km
Gewijzigd: 15-05-2021 16:25
Grotendeels bewolkt  
Grotendeels bewolkt  
   Wind: NO 14.8 km/h
Wind: NO 14.8 km/h
Temperatuur: 10°C
Voelt als: 8°C
Dauwpunt: 9°C
Vochtigheid: 94%
Barometer: 1002 hPa
Bewolking: Grotendeels bewolkt
Zicht: 8 km
Bewolking: Gedeeltelijk bewolkt 1800 ft,
Grotendeels bewolkt 2200 ft,
Grotendeels bewolkt 2600 ft
EHMA 151425Z AUTO 05008KT 8000 SCT018 BKN022 BKN026 10/09 Q1002
EDDW - Bremen, Germany
Afstand tot: ONO 135 km
Gewijzigd: 15-05-2021 16:20
Nearby Thunderstorm, Light Showers, Regen, Gedeeltelijk bewolkt  
Nearby Thunderstorm, Light Showers, Regen, Gedeeltelijk bewolkt  
   Wind: WZW 18.5 km/h
Wind: WZW 18.5 km/h
Temperatuur: 12°C
Dauwpunt: 9°C
Vochtigheid: 82%
Barometer: 1002 hPa
Bewolking: Gedeeltelijk bewolkt
Zicht: meer dan 10 km
Bewolking: Gedeeltelijk bewolkt 1700 ft,
Gedeeltelijk bewolkt 2200 ft
EDDW 151420Z 24010KT 9999 VCTS -SHRA SCT017CB SCT022TCU 12/09 Q1002 NOSIG
EHVL - Vlieland Island, Netherlands
Afstand tot: WNW 138 km
Gewijzigd: 15-05-2021 16:46
Bewolking  
Bewolking  
   Wind: NNO 20.4 km/h
Wind: NNO 20.4 km/h
Temperatuur: 11°C
Dauwpunt: 8°C
Vochtigheid: 82%
Barometer: 1001 hPa
Bewolking: Bewolking
Zicht: meer dan 10 km
Bewolking: Licht bewolkt 900 ft,
Bewolking 17000 ft
EHVL 151446Z AUTO 02011KT 9999 FEW009 OVC170 11/08 Q1001 BLU
EDLV - Niederrhein, Germany
Afstand tot: ZZW 139 km
Gewijzigd: 15-05-2021 16:20
Gedeeltelijk bewolkt  
Gedeeltelijk bewolkt  
   Wind: ZZW 11.1 km/h
Wind: ZZW 11.1 km/h
Temperatuur: 14°C
Dauwpunt: 10°C
Vochtigheid: 77%
Barometer: 1001 hPa
Bewolking: Gedeeltelijk bewolkt
Zicht: meer dan 10 km
Bewolking: Gedeeltelijk bewolkt 2000 ft
EDLV 151420Z 20006KT 160V240 9999 SCT020 14/10 Q1001
EHKD - De Kooy (navy), Netherlands
Afstand tot: W 144 km
Gewijzigd: 15-05-2021 16:25
Bewolking  
Bewolking  
   Wind: ONO 11.1 km/h
Wind: ONO 11.1 km/h
Temperatuur: 11°C
Dauwpunt: 8°C
Vochtigheid: 82%
Barometer: 1001 hPa
Bewolking: Bewolking
Zicht: meer dan 10 km
Bewolking: Grotendeels bewolkt 4200 ft,
Bewolking 4700 ft
EHKD 151425Z AUTO 06006KT 030V100 9999 BKN042 OVC047 11/08 Q1001 BLU NOSIG
EDLW - Dortmund/Wickede, Germany
Afstand tot: ZZO 150 km
Gewijzigd: 15-05-2021 16:20
Licht bewolkt  
Licht bewolkt  
   Wind: ZZO 16.7 km/h
Wind: ZZO 16.7 km/h
Temperatuur: 14°C
Dauwpunt: 7°C
Vochtigheid: 63%
Barometer: 1002 hPa
Bewolking: Licht bewolkt
Zicht: meer dan 10 km
Bewolking: Licht bewolkt 2900 ft
EDLW 151420Z 16009KT 130V210 9999 FEW029 14/07 Q1002
EHVK - Volkel Rnlafb, Netherlands
Afstand tot: ZZW 149 km
Gewijzigd: 15-05-2021 16:25
Bewolking  
Bewolking  
   Wind: ZZW 18.5 km/h
Wind: ZZW 18.5 km/h
Temperatuur: 14°C
Dauwpunt: 8°C
Vochtigheid: 67%
Barometer: 1001 hPa
Bewolking: Bewolking
Zicht: meer dan 10 km
Bewolking: Licht bewolkt 3000 ft,
Gedeeltelijk bewolkt 3500 ft,
Bewolking 5000 ft
EHVK 151425Z AUTO 21010KT 170V240 9999 FEW030 SCT035 OVC050 14/08 Q1001 BLU
EDLW - Dortmund/Wickede, Germany
Afstand tot: ZZO 150 km
Gewijzigd: 15-05-2021 16:20
Licht bewolkt  
Licht bewolkt  
   Wind: ZZO 16.7 km/h
Wind: ZZO 16.7 km/h
Temperatuur: 14°C
Dauwpunt: 7°C
Vochtigheid: 63%
Barometer: 1002 hPa
Bewolking: Licht bewolkt
Zicht: meer dan 10 km
Bewolking: Licht bewolkt 2900 ft
EDLW 151420Z 16009KT 130V210 9999 FEW029 14/07 Q1002
EHMG - L9-Ff-1 Sea, Netherlands
Afstand tot: NW 155 km
Gewijzigd: 15-05-2021 16:25
Grotendeels bewolkt  
Grotendeels bewolkt  
   Wind: ONO 14.8 km/h
Wind: ONO 14.8 km/h
Temperatuur: 10°C
Voelt als: 8°C
Dauwpunt: 8°C
Vochtigheid: 88%
Barometer: 1003 hPa
Bewolking: Grotendeels bewolkt
Zicht: meer dan 10 km
Bewolking: Licht bewolkt 800 ft,
Grotendeels bewolkt 1700 ft,
Grotendeels bewolkt 3400 ft
EHMG 151425Z AUTO 06008KT 9999 FEW008 BKN017 BKN034 10/08 Q1003
ETHB - Buckeburg(Ger-Ar, Germany
Afstand tot: OZO 161 km
Gewijzigd: 15-05-2021 16:20
  
  
   Wind: ZZW 16.7 km/h
Wind: ZZW 16.7 km/h
Temperatuur: 11°C
Dauwpunt: 9°C
Vochtigheid: 88%
Barometer: 1003 hPa
Zicht: 7 km
ETHB 151420Z AUTO 20009KT 7000 // ////// 11/09 Q1003 ///
ETMN - Nordholz (ger-Na, Germany
Afstand tot: NO 164 km
Gewijzigd: 15-05-2021 16:34
Grotendeels bewolkt  
Grotendeels bewolkt  
   Wind: NO 13 km/h
Wind: NO 13 km/h
Temperatuur: 13°C
Dauwpunt: 9°C
Vochtigheid: 77%
Barometer: 1002 hPa
Bewolking: Grotendeels bewolkt
Zicht: meer dan 10 km
Bewolking: Gedeeltelijk bewolkt 2000 ft,
Grotendeels bewolkt 3000 ft
ETMN 151434Z 04007KT 9999 SCT020 BKN030 13/09 Q1002 BLU
EDDL - Duesseldorf, Germany
Afstand tot: Z 165 km
Gewijzigd: 15-05-2021 16:20
Regenbuien, Gedeeltelijk bewolkt  
Regenbuien, Gedeeltelijk bewolkt  
   Wind: ZZO 13 km/h
Wind: ZZO 13 km/h
Temperatuur: 13°C
Dauwpunt: 10°C
Vochtigheid: 82%
Barometer: 1002 hPa
Bewolking: Gedeeltelijk bewolkt
Zicht: meer dan 10 km
Bewolking: Licht bewolkt 1700 ft,
Licht bewolkt 2600 ft,
Gedeeltelijk bewolkt 4600 ft
EDDL 151420Z 15007KT 9999 VCSH FEW017 FEW026CB SCT046 13/10 Q1002 RESHRA TEMPO 23012KT SHRA
EDLN - Monchengladbach, Germany
Afstand tot: Z 174 km
Gewijzigd: 15-05-2021 16:20
Regenbuien, Gedeeltelijk bewolkt  
Regenbuien, Gedeeltelijk bewolkt  
   Wind: Zuiden 11.1 km/h
Wind: Zuiden 11.1 km/h
Temperatuur: 14°C
Dauwpunt: 10°C
Vochtigheid: 77%
Barometer: 1002 hPa
Bewolking: Gedeeltelijk bewolkt
Zicht: meer dan 10 km
Bewolking: Gedeeltelijk bewolkt 2600 ft
EDLN 151420Z 19006KT 140V220 9999 VCSH SCT026TCU 14/10 Q1002

Script ontwikkeld door  Saratoga-weather.org Aangepast voor de template door  Weerstation Leuven

U vindt ons ook hier:

Het Weer Aktueel

European Weather Network

Weather Underground

Wetterpage 24

Apparatuur in gebruik:

Weerstation
Davis VP2

Weerprogramma
Meteohub

Hardware
RaspberryPI, Wireless Weather Envoy, MeteoStick, TP-Link MR3020

Leverancier
Weerhuisje.nl weerstations

Davis VP2

Meteohub

RaspberryPI, Wireless Weather Envoy, MeteoStick, TP-Link MR3020

Weerhuisje.nl weerstations